Time;durP1;ratioP1;P1;durP2;ratioP2;P2;SDS_P1;SDS_P2;PMS_P1;PMS_P2;Temp;Humidity;BMP_temperature;BMP_pressure;BME280_temperature;BME280_humidity;BME280_pressure;Samples;Min_cycle;Max_cycle;Signal;HPM_P1;HPM_P2
2023/07/31 00:01:59;;;;;;;1.37;1.10;;;;;;;;;;4968504;28;20527;-70
2023/07/31 00:04:25;;;;;;;1.27;1.27;;;;;;;;;;4967575;28;20457;-70
2023/07/31 00:06:51;;;;;;;2.10;1.30;;;;;;;;;;4969841;28;20464;-71
2023/07/31 00:09:17;;;;;;;1.43;1.20;;;;;;;;;;4968171;28;20430;-71
2023/07/31 00:11:43;;;;;;;1.53;1.43;;;;;;;;;;4968633;28;20476;-70
2023/07/31 00:14:09;;;;;;;1.17;1.10;;;;;;;;;;4967877;28;20438;-71
2023/07/31 00:16:35;;;;;;;1.33;1.30;;;;;;;;;;4969033;28;20809;-71
2023/07/31 00:19:01;;;;;;;1.03;1.00;;;;;;;;;;4968028;28;20513;-71
2023/07/31 00:21:27;;;;;;;1.90;1.40;;;;;;;;;;4967081;28;20438;-70
2023/07/31 00:23:53;;;;;;;2.67;1.10;;;;;;;;;;4967514;28;20441;-70
2023/07/31 00:26:19;;;;;;;3.93;1.27;;;;;;;;;;4970161;28;20854;-70
2023/07/31 00:28:45;;;;;;;2.60;1.10;;;;;;;;;;4967661;28;20456;-71
2023/07/31 00:31:11;;;;;;;1.20;1.00;;;;;;;;;;4968861;28;20438;-71
2023/07/31 00:33:38;;;;;;;5.13;1.10;;;;;;;;;;4968301;28;20522;-70
2023/07/31 00:36:04;;;;;;;1.50;1.40;;;;;;;;;;4969692;28;20441;-70
2023/07/31 00:38:30;;;;;;;1.07;1.07;;;;;;;;;;4967919;28;20449;-70
2023/07/31 00:40:56;;;;;;;1.97;0.97;;;;;;;;;;4967962;28;20438;-70
2023/07/31 00:43:22;;;;;;;4.00;1.53;;;;;;;;;;4967668;28;20788;-71
2023/07/31 00:45:48;;;;;;;1.40;1.40;;;;;;;;;;4968098;28;20422;-70
2023/07/31 00:48:14;;;;;;;0.83;0.83;;;;;;;;;;4967252;28;20441;-70
2023/07/31 00:50:40;;;;;;;1.20;1.13;;;;;;;;;;4967615;28;20433;-71
2023/07/31 00:53:06;;;;;;;1.10;1.00;;;;;;;;;;4966825;28;20839;-71
2023/07/31 00:55:32;;;;;;;1.90;1.20;;;;;;;;;;4970886;28;20418;-70
2023/07/31 00:57:58;;;;;;;0.97;0.97;;;;;;;;;;4971099;28;20442;-70
2023/07/31 01:00:24;;;;;;;1.53;1.43;;;;;;;;;;4971634;28;20554;-70
2023/07/31 01:02:51;;;;;;;2.23;1.40;;;;;;;;;;4969827;28;20430;-70
2023/07/31 01:05:18;;;;;;;2.00;1.20;;;;;;;;;;4970334;28;20546;-71
2023/07/31 01:07:47;;;;;;;1.77;1.40;;;;;;;;;;4969719;28;20448;-70
2023/07/31 01:10:24;;;;;;;1.27;1.17;;;;;;;;;;4970929;28;20453;-70
2023/07/31 01:12:51;;;;;;;6.80;2.10;;;;;;;;;;4971532;28;20458;-71
2023/07/31 01:15:17;;;;;;;1.53;1.43;;;;;;;;;;4971061;28;20990;-70
2023/07/31 01:17:44;;;;;;;1.23;1.20;;;;;;;;;;4970664;28;20533;-70
2023/07/31 01:20:15;;;;;;;1.90;1.70;;;;;;;;;;4970713;28;20477;-70
2023/07/31 01:22:44;;;;;;;1.10;1.10;;;;;;;;;;4970938;28;20434;-70
2023/07/31 01:25:29;;;;;;;1.10;1.10;;;;;;;;;;4971070;28;20445;-70
2023/07/31 01:28:15;;;;;;;1.20;1.20;;;;;;;;;;4970993;28;20436;-71
2023/07/31 01:30:45;;;;;;;14.93;1.57;;;;;;;;;;4970018;28;20924;-70
2023/07/31 01:33:11;;;;;;;3.07;1.40;;;;;;;;;;4970333;28;20449;-70
2023/07/31 01:35:38;;;;;;;1.83;1.50;;;;;;;;;;4969603;28;20425;-70
2023/07/31 01:38:05;;;;;;;1.30;1.20;;;;;;;;;;4971776;28;20547;-70
2023/07/31 01:40:31;;;;;;;6.53;1.30;;;;;;;;;;4970256;28;20848;-70
2023/07/31 01:42:57;;;;;;;1.47;1.47;;;;;;;;;;4970114;28;20520;-70
2023/07/31 01:45:23;;;;;;;1.00;1.00;;;;;;;;;;4970659;28;20855;-71
2023/07/31 01:47:49;;;;;;;1.77;1.77;;;;;;;;;;4970688;28;20426;-70
2023/07/31 01:50:15;;;;;;;3.03;1.60;;;;;;;;;;4970887;28;20984;-70
2023/07/31 01:52:41;;;;;;;1.23;1.23;;;;;;;;;;4967418;28;20491;-70
2023/07/31 01:55:07;;;;;;;1.53;1.50;;;;;;;;;;4970052;28;20434;-70
2023/07/31 01:57:33;;;;;;;2.13;1.43;;;;;;;;;;4969455;28;20492;-70
2023/07/31 01:59:59;;;;;;;1.40;1.40;;;;;;;;;;4969296;28;20485;-70
2023/07/31 02:02:25;;;;;;;1.10;1.10;;;;;;;;;;4970664;28;20435;-70
2023/07/31 02:04:51;;;;;;;1.50;1.40;;;;;;;;;;4967585;28;20454;-71
2023/07/31 02:07:17;;;;;;;1.00;1.00;;;;;;;;;;4970536;28;20951;-70
2023/07/31 02:09:43;;;;;;;1.10;1.10;;;;;;;;;;4973453;28;20441;-70
2023/07/31 02:12:09;;;;;;;1.40;1.40;;;;;;;;;;4973689;28;20463;-70
2023/07/31 02:14:35;;;;;;;1.67;1.20;;;;;;;;;;4973205;28;20486;-70
2023/07/31 02:17:01;;;;;;;1.43;1.33;;;;;;;;;;4973819;28;20451;-70
2023/07/31 02:19:27;;;;;;;2.13;1.60;;;;;;;;;;4973198;28;20470;-70
2023/07/31 02:21:53;;;;;;;1.43;0.97;;;;;;;;;;4973223;28;20425;-70
2023/07/31 02:24:19;;;;;;;2.23;2.10;;;;;;;;;;4973370;28;20881;-70
2023/07/31 02:26:45;;;;;;;1.30;1.30;;;;;;;;;;4973219;28;20735;-70
2023/07/31 02:29:11;;;;;;;2.53;1.50;;;;;;;;;;4973104;28;20517;-70
2023/07/31 02:31:37;;;;;;;1.47;1.00;;;;;;;;;;4973672;28;20882;-70
2023/07/31 02:34:03;;;;;;;2.30;1.40;;;;;;;;;;4973547;28;20917;-70
2023/07/31 02:36:29;;;;;;;1.60;1.23;;;;;;;;;;4973305;28;20805;-70
2023/07/31 02:38:55;;;;;;;2.07;1.57;;;;;;;;;;4972809;28;20494;-70
2023/07/31 02:41:21;;;;;;;3.80;1.20;;;;;;;;;;4973789;28;20430;-70
2023/07/31 02:43:47;;;;;;;1.90;1.20;;;;;;;;;;4973153;28;20421;-70
2023/07/31 02:46:13;;;;;;;1.57;1.57;;;;;;;;;;4973246;28;20905;-70
2023/07/31 02:48:39;;;;;;;1.03;1.03;;;;;;;;;;4972930;28;20740;-70
2023/07/31 02:51:05;;;;;;;1.10;1.10;;;;;;;;;;4973225;28;20430;-70
2023/07/31 02:53:31;;;;;;;1.40;1.10;;;;;;;;;;4972509;28;20512;-70
2023/07/31 02:55:57;;;;;;;8.33;1.20;;;;;;;;;;4972853;28;20893;-70
2023/07/31 02:58:23;;;;;;;1.53;1.43;;;;;;;;;;4973098;28;20419;-70
2023/07/31 03:00:49;;;;;;;1.57;1.47;;;;;;;;;;4973203;28;20485;-70
2023/07/31 03:03:15;;;;;;;1.57;1.47;;;;;;;;;;4972696;28;20419;-70
2023/07/31 03:05:41;;;;;;;2.90;1.50;;;;;;;;;;4972457;28;20813;-70
2023/07/31 03:08:07;;;;;;;1.27;1.20;;;;;;;;;;4972956;28;20422;-70
2023/07/31 03:13:36;;;;;;;1.47;1.37;;;;;;;;;;4972372;28;20409;-71
2023/07/31 03:16:02;;;;;;;2.03;1.30;;;;;;;;;;4972270;28;20414;-71
2023/07/31 03:18:28;;;;;;;1.20;1.20;;;;;;;;;;4972491;28;20505;-70
2023/07/31 03:20:54;;;;;;;1.20;1.10;;;;;;;;;;4972415;28;20418;-70
2023/07/31 03:23:20;;;;;;;1.73;1.10;;;;;;;;;;4972281;28;20418;-70
2023/07/31 03:25:57;;;;;;;0.90;0.90;;;;;;;;;;4972058;28;20430;-70
2023/07/31 03:28:23;;;;;;;1.70;1.30;;;;;;;;;;4972504;28;20414;-70
2023/07/31 03:30:49;;;;;;;1.57;1.20;;;;;;;;;;4971020;28;20414;-70
2023/07/31 03:33:15;;;;;;;4.90;1.30;;;;;;;;;;4972193;28;20420;-71
2023/07/31 03:35:41;;;;;;;2.17;1.20;;;;;;;;;;4972139;28;20418;-71
2023/07/31 03:38:07;;;;;;;1.43;1.00;;;;;;;;;;4972101;28;20492;-70
2023/07/31 03:40:33;;;;;;;1.70;1.10;;;;;;;;;;4971991;28;20505;-71
2023/07/31 03:42:58;;;;;;;3.50;1.63;;;;;;;;;;4972110;28;20418;-71
2023/07/31 03:45:24;;;;;;;1.90;1.30;;;;;;;;;;4971810;28;20422;-70
2023/07/31 03:47:50;;;;;;;2.30;1.00;;;;;;;;;;4971769;28;20414;-70
2023/07/31 03:50:16;;;;;;;2.10;2.00;;;;;;;;;;4972179;28;20426;-70
2023/07/31 03:52:42;;;;;;;1.33;1.23;;;;;;;;;;4972010;28;20488;-70
2023/07/31 03:55:08;;;;;;;1.50;1.20;;;;;;;;;;4971804;28;20452;-70
2023/07/31 03:57:34;;;;;;;1.50;1.03;;;;;;;;;;4971856;28;20419;-71
2023/07/31 04:00:00;;;;;;;1.40;1.17;;;;;;;;;;4971763;28;20480;-70
2023/07/31 04:02:26;;;;;;;1.50;1.50;;;;;;;;;;4972195;28;20966;-70
2023/07/31 04:04:52;;;;;;;1.97;1.00;;;;;;;;;;4971673;28;20549;-70
2023/07/31 04:07:18;;;;;;;2.43;1.30;;;;;;;;;;4971953;28;20425;-71
2023/07/31 04:09:44;;;;;;;4.43;1.07;;;;;;;;;;4971573;28;20194;-70
2023/07/31 04:12:10;;;;;;;14.93;2.53;;;;;;;;;;4971644;28;20521;-70
2023/07/31 04:14:36;;;;;;;2.50;1.40;;;;;;;;;;4971711;28;20434;-70
2023/07/31 04:17:02;;;;;;;1.00;1.00;;;;;;;;;;4971563;28;20418;-70
2023/07/31 04:19:28;;;;;;;2.73;1.40;;;;;;;;;;4971448;28;20472;-70
2023/07/31 04:21:54;;;;;;;2.30;1.30;;;;;;;;;;4971663;28;20458;-70
2023/07/31 04:24:24;;;;;;;1.40;1.37;;;;;;;;;;4971340;28;20476;-70
2023/07/31 04:26:54;;;;;;;3.70;1.03;;;;;;;;;;4971318;28;20838;-70
2023/07/31 04:29:20;;;;;;;0.93;0.93;;;;;;;;;;4972981;28;20522;-70
2023/07/31 04:31:46;;;;;;;2.30;1.50;;;;;;;;;;4975203;28;20433;-70
2023/07/31 04:34:12;;;;;;;4.97;2.53;;;;;;;;;;4975159;28;20775;-70
2023/07/31 04:36:38;;;;;;;1.87;1.80;;;;;;;;;;4975130;28;20422;-70
2023/07/31 04:39:04;;;;;;;1.53;1.43;;;;;;;;;;4974986;28;20853;-70
2023/07/31 04:41:30;;;;;;;1.73;1.63;;;;;;;;;;4974880;28;20447;-70
2023/07/31 04:43:56;;;;;;;1.00;1.00;;;;;;;;;;4973348;28;20449;-70
2023/07/31 04:46:22;;;;;;;2.73;1.63;;;;;;;;;;4974737;28;20467;-70
2023/07/31 04:48:48;;;;;;;1.30;1.17;;;;;;;;;;4974726;28;20429;-70
2023/07/31 04:51:14;;;;;;;1.00;1.00;;;;;;;;;;4974688;28;20778;-70
2023/07/31 04:53:40;;;;;;;1.20;1.20;;;;;;;;;;4974447;28;20473;-70
2023/07/31 04:56:06;;;;;;;1.30;1.30;;;;;;;;;;4974857;28;20822;-70
2023/07/31 04:58:32;;;;;;;1.30;1.30;;;;;;;;;;4974473;28;20433;-70
2023/07/31 05:00:57;;;;;;;6.80;1.50;;;;;;;;;;4974385;28;20434;-70
2023/07/31 05:03:23;;;;;;;2.20;1.20;;;;;;;;;;4974377;28;20418;-70
2023/07/31 05:05:50;;;;;;;1.80;1.50;;;;;;;;;;4974693;28;20429;-70
2023/07/31 05:08:17;;;;;;;3.10;2.80;;;;;;;;;;4974329;28;20904;-70
2023/07/31 05:10:43;;;;;;;1.17;1.17;;;;;;;;;;4974335;28;20422;-70
2023/07/31 05:13:09;;;;;;;2.20;2.10;;;;;;;;;;4974355;28;20922;-70
2023/07/31 05:15:35;;;;;;;1.23;1.13;;;;;;;;;;4974500;28;20454;-71
2023/07/31 05:18:01;;;;;;;7.23;1.50;;;;;;;;;;4974264;28;20418;-71
2023/07/31 05:20:27;;;;;;;2.47;1.33;;;;;;;;;;4974128;28;20479;-70
2023/07/31 05:22:53;;;;;;;1.37;1.27;;;;;;;;;;4974327;28;20418;-71
2023/07/31 05:25:19;;;;;;;2.87;1.00;;;;;;;;;;4974316;28;20436;-70
2023/07/31 05:27:45;;;;;;;1.00;1.00;;;;;;;;;;4974385;28;20456;-71
2023/07/31 05:30:11;;;;;;;1.33;1.03;;;;;;;;;;4974792;28;20494;-70
2023/07/31 05:32:37;;;;;;;4.27;1.30;;;;;;;;;;4973948;28;20425;-70
2023/07/31 05:35:03;;;;;;;4.40;1.43;;;;;;;;;;4973966;28;20419;-71
2023/07/31 05:37:29;;;;;;;2.73;1.33;;;;;;;;;;4973830;28;20940;-70
2023/07/31 05:39:55;;;;;;;1.63;1.53;;;;;;;;;;4973942;28;20473;-71
2023/07/31 05:42:21;;;;;;;2.87;1.20;;;;;;;;;;4973607;28;20485;-70
2023/07/31 05:44:47;;;;;;;1.40;1.30;;;;;;;;;;4974391;28;20426;-70
2023/07/31 05:47:13;;;;;;;1.83;1.73;;;;;;;;;;4973923;28;20413;-70
2023/07/31 05:49:39;;;;;;;1.23;1.20;;;;;;;;;;4974091;28;20418;-70
2023/07/31 05:52:05;;;;;;;4.47;1.57;;;;;;;;;;4973703;28;21058;-69
2023/07/31 05:54:32;;;;;;;2.00;1.10;;;;;;;;;;4973685;28;20446;-70
2023/07/31 05:56:58;;;;;;;1.20;1.20;;;;;;;;;;4973700;28;20408;-70
2023/07/31 05:59:24;;;;;;;3.87;1.07;;;;;;;;;;4973520;28;20533;-70
2023/07/31 06:01:50;;;;;;;1.97;1.87;;;;;;;;;;4973880;28;20830;-70
2023/07/31 06:04:16;;;;;;;7.73;3.23;;;;;;;;;;4974187;28;20454;-70
2023/07/31 06:06:42;;;;;;;2.83;1.33;;;;;;;;;;4973534;28;20471;-70
2023/07/31 06:09:08;;;;;;;3.20;1.20;;;;;;;;;;4973326;28;20843;-70
2023/07/31 06:11:33;;;;;;;4.00;2.17;;;;;;;;;;4973957;28;20422;-70
2023/07/31 06:13:59;;;;;;;3.10;1.70;;;;;;;;;;4973590;28;20426;-70
2023/07/31 06:16:27;;;;;;;2.40;1.20;;;;;;;;;;4973774;28;20978;-70
2023/07/31 06:18:53;;;;;;;1.67;1.57;;;;;;;;;;4973320;28;20599;-70
2023/07/31 06:21:18;;;;;;;2.57;1.13;;;;;;;;;;4973075;28;20458;-70
2023/07/31 06:23:44;;;;;;;19.03;1.43;;;;;;;;;;4973082;28;20417;-70
2023/07/31 06:26:10;;;;;;;2.77;1.23;;;;;;;;;;4973165;28;20890;-70
2023/07/31 06:28:36;;;;;;;1.37;1.37;;;;;;;;;;4973007;28;20418;-70
2023/07/31 06:31:02;;;;;;;1.20;1.10;;;;;;;;;;4973053;28;20916;-70
2023/07/31 06:33:29;;;;;;;2.73;1.37;;;;;;;;;;4973572;28;20758;-70
2023/07/31 06:35:55;;;;;;;1.37;1.10;;;;;;;;;;4973164;28;20461;-70
2023/07/31 06:38:23;;;;;;;2.50;1.30;;;;;;;;;;4972942;28;20415;-70
2023/07/31 06:40:49;;;;;;;3.30;2.17;;;;;;;;;;4972731;28;21055;-70
2023/07/31 06:43:15;;;;;;;4.87;2.00;;;;;;;;;;4973022;28;20457;-70
2023/07/31 06:45:41;;;;;;;5.83;1.60;;;;;;;;;;4973157;28;20424;-70
2023/07/31 06:48:06;;;;;;;1.60;1.23;;;;;;;;;;4972670;28;20417;-70
2023/07/31 06:53:36;;;;;;;6.87;1.77;;;;;;;;;;4960428;28;20519;-70
2023/07/31 06:56:02;;;;;;;1.30;1.20;;;;;;;;;;4972646;28;20433;-70
2023/07/31 06:58:28;;;;;;;1.63;1.30;;;;;;;;;;4972759;28;20489;-70
2023/07/31 07:00:54;;;;;;;5.03;1.50;;;;;;;;;;4972198;28;20576;-70
2023/07/31 07:03:20;;;;;;;5.00;1.60;;;;;;;;;;4972982;28;20493;-70
2023/07/31 07:05:46;;;;;;;3.43;1.10;;;;;;;;;;4970846;28;20564;-70
2023/07/31 07:08:12;;;;;;;1.20;1.07;;;;;;;;;;4972563;28;20422;-70
2023/07/31 07:10:38;;;;;;;2.90;1.20;;;;;;;;;;4972817;28;20514;-70
2023/07/31 07:13:04;;;;;;;1.20;1.10;;;;;;;;;;4972439;28;20917;-70
2023/07/31 07:15:30;;;;;;;3.87;1.33;;;;;;;;;;4972926;28;20419;-70
2023/07/31 07:17:56;;;;;;;2.00;1.53;;;;;;;;;;4972649;28;20453;-70
2023/07/31 07:20:22;;;;;;;1.60;1.47;;;;;;;;;;4972006;28;20842;-70
2023/07/31 07:22:48;;;;;;;1.67;1.17;;;;;;;;;;4972037;28;20417;-70
2023/07/31 07:25:14;;;;;;;2.80;1.30;;;;;;;;;;4972415;28;20910;-70
2023/07/31 07:27:40;;;;;;;1.73;1.40;;;;;;;;;;4972036;28;20433;-70
2023/07/31 07:30:06;;;;;;;7.80;2.23;;;;;;;;;;4972123;28;20515;-70
2023/07/31 07:32:32;;;;;;;3.57;1.60;;;;;;;;;;4972261;28;20438;-70
2023/07/31 07:34:58;;;;;;;1.53;1.10;;;;;;;;;;4971942;28;20458;-70
2023/07/31 07:37:24;;;;;;;2.17;1.50;;;;;;;;;;4970838;28;20418;-70
2023/07/31 07:39:50;;;;;;;1.63;1.53;;;;;;;;;;4970702;28;20488;-70
2023/07/31 07:42:16;;;;;;;2.90;1.70;;;;;;;;;;4972542;28;20509;-70
2023/07/31 07:44:42;;;;;;;3.03;1.70;;;;;;;;;;4971813;28;20468;-70
2023/07/31 07:47:08;;;;;;;4.33;1.53;;;;;;;;;;4971987;28;20422;-70
2023/07/31 07:49:34;;;;;;;8.77;2.50;;;;;;;;;;4972048;28;20505;-70
2023/07/31 07:52:00;;;;;;;10.97;2.50;;;;;;;;;;4972204;28;20429;-70
2023/07/31 07:54:27;;;;;;;9.03;1.80;;;;;;;;;;4971744;28;20481;-71
2023/07/31 07:56:53;;;;;;;2.53;1.23;;;;;;;;;;4971777;28;20792;-70
2023/07/31 07:59:19;;;;;;;4.80;1.47;;;;;;;;;;4971837;28;20875;-70
2023/07/31 08:01:45;;;;;;;3.40;1.23;;;;;;;;;;4971914;28;20423;-70
2023/07/31 08:04:11;;;;;;;3.93;1.53;;;;;;;;;;4970823;28;20418;-70
2023/07/31 08:06:37;;;;;;;3.20;1.33;;;;;;;;;;4972157;28;20434;-70
2023/07/31 08:09:06;;;;;;;2.10;1.43;;;;;;;;;;4971643;28;20827;-70
2023/07/31 08:11:32;;;;;;;1.30;1.20;;;;;;;;;;4971619;28;20430;-70
2023/07/31 08:13:58;;;;;;;1.63;1.43;;;;;;;;;;4971636;28;20922;-70
2023/07/31 08:16:24;;;;;;;1.63;1.63;;;;;;;;;;4971629;28;20426;-70
2023/07/31 08:18:50;;;;;;;1.50;1.40;;;;;;;;;;4971499;28;20782;-70
2023/07/31 08:21:16;;;;;;;3.60;1.60;;;;;;;;;;4971987;28;20521;-70
2023/07/31 08:23:42;;;;;;;6.60;1.87;;;;;;;;;;4971395;28;20468;-70
2023/07/31 08:26:08;;;;;;;5.00;1.00;;;;;;;;;;4971540;28;20422;-70
2023/07/31 08:28:36;;;;;;;2.60;1.33;;;;;;;;;;4971764;28;20752;-70
2023/07/31 08:31:02;;;;;;;1.00;0.90;;;;;;;;;;4971386;28;20437;-70
2023/07/31 08:33:28;;;;;;;4.20;1.60;;;;;;;;;;4971400;28;20509;-70
2023/07/31 08:35:54;;;;;;;6.13;1.93;;;;;;;;;;4971616;28;20430;-70
2023/07/31 08:38:20;;;;;;;4.53;1.67;;;;;;;;;;4971547;28;20422;-70
2023/07/31 08:40:46;;;;;;;8.10;1.40;;;;;;;;;;4971530;28;20551;-70
2023/07/31 08:43:12;;;;;;;1.53;1.07;;;;;;;;;;4970031;28;20422;-70
2023/07/31 08:45:39;;;;;;;1.70;1.70;;;;;;;;;;4971368;28;20433;-70
2023/07/31 08:48:05;;;;;;;1.20;1.10;;;;;;;;;;4971473;28;20449;-69
2023/07/31 08:50:31;;;;;;;1.23;1.23;;;;;;;;;;4971129;28;20762;-70
2023/07/31 08:52:57;;;;;;;3.53;1.57;;;;;;;;;;4970805;28;20425;-70
2023/07/31 08:55:24;;;;;;;3.53;1.73;;;;;;;;;;4971419;28;20480;-70
2023/07/31 08:57:53;;;;;;;7.23;1.83;;;;;;;;;;4970481;28;20533;-70
2023/07/31 09:00:21;;;;;;;1.33;1.23;;;;;;;;;;4970961;28;20488;-70
2023/07/31 09:03:03;;;;;;;2.83;1.30;;;;;;;;;;4971187;28;20437;-70
2023/07/31 09:05:30;;;;;;;1.20;1.10;;;;;;;;;;4971299;28;20432;-70
2023/07/31 09:07:57;;;;;;;1.73;1.57;;;;;;;;;;4970941;28;20949;-70
2023/07/31 09:13:28;;;;;;;4.03;1.40;;;;;;;;;;4971237;28;20413;-70
2023/07/31 09:15:54;;;;;;;1.80;1.40;;;;;;;;;;4973065;28;20479;-70
2023/07/31 09:18:22;;;;;;;4.43;1.70;;;;;;;;;;4974149;28;20422;-70
2023/07/31 09:21:01;;;;;;;1.80;1.70;;;;;;;;;;4973990;28;21046;-70
2023/07/31 09:23:40;;;;;;;1.13;1.13;;;;;;;;;;4974403;28;20406;-70
2023/07/31 09:26:06;;;;;;;1.70;1.70;;;;;;;;;;4974166;28;20406;-70
2023/07/31 09:28:33;;;;;;;1.60;1.50;;;;;;;;;;4974354;28;20467;-70
2023/07/31 09:30:59;;;;;;;3.43;1.70;;;;;;;;;;4974045;28;20521;-70
2023/07/31 09:33:25;;;;;;;1.73;1.63;;;;;;;;;;4974381;28;20851;-70
2023/07/31 09:35:51;;;;;;;2.57;1.63;;;;;;;;;;4973976;28;20437;-70
2023/07/31 09:38:17;;;;;;;1.90;1.63;;;;;;;;;;4973751;28;20430;-69
2023/07/31 09:40:44;;;;;;;1.23;1.23;;;;;;;;;;4974150;28;20503;-70
2023/07/31 09:43:11;;;;;;;3.50;1.50;;;;;;;;;;4973698;28;20479;-70
2023/07/31 09:45:39;;;;;;;4.93;1.70;;;;;;;;;;4973816;28;20886;-70
2023/07/31 09:48:09;;;;;;;4.03;1.63;;;;;;;;;;4973677;28;20575;-70
2023/07/31 09:53:38;;;;;;;4.17;1.70;;;;;;;;;;4973366;28;20503;-70
2023/07/31 09:56:05;;;;;;;6.33;1.70;;;;;;;;;;4973450;28;20798;-70
2023/07/31 09:58:33;;;;;;;5.23;1.67;;;;;;;;;;4973959;28;20442;-68
2023/07/31 10:00:59;;;;;;;2.27;1.93;;;;;;;;;;4973746;28;20505;-70
2023/07/31 10:03:25;;;;;;;2.03;1.57;;;;;;;;;;4973705;28;20415;-69
2023/07/31 10:05:53;;;;;;;1.97;1.30;;;;;;;;;;4973635;28;20426;-69
2023/07/31 10:08:20;;;;;;;3.03;1.90;;;;;;;;;;4973594;28;20885;-69
2023/07/31 10:10:46;;;;;;;4.73;2.20;;;;;;;;;;4973758;28;20426;-70
2023/07/31 10:13:13;;;;;;;5.80;1.20;;;;;;;;;;4973252;28;20432;-70
2023/07/31 10:15:40;;;;;;;5.07;1.93;;;;;;;;;;4973510;28;20422;-69
2023/07/31 10:18:07;;;;;;;2.70;1.60;;;;;;;;;;4973173;28;20426;-69
2023/07/31 10:20:34;;;;;;;3.63;1.53;;;;;;;;;;4973146;28;20480;-68
2023/07/31 10:23:00;;;;;;;5.50;2.00;;;;;;;;;;4973589;28;20421;-72
2023/07/31 10:25:27;;;;;;;5.27;2.40;;;;;;;;;;4973419;28;20419;-70
2023/07/31 10:27:54;;;;;;;5.27;2.03;;;;;;;;;;4972353;28;20414;-71
2023/07/31 10:30:25;;;;;;;3.63;1.60;;;;;;;;;;4973176;28;20418;-71
2023/07/31 10:32:51;;;;;;;1.97;1.87;;;;;;;;;;4972978;28;20444;-74
2023/07/31 10:35:18;;;;;;;1.60;1.60;;;;;;;;;;4973284;28;20492;-71
2023/07/31 10:37:44;;;;;;;13.40;2.10;;;;;;;;;;4973116;28;20414;-70
2023/07/31 10:40:13;;;;;;;5.70;2.67;;;;;;;;;;4972798;28;20961;-71
2023/07/31 10:42:55;;;;;;;2.13;1.80;;;;;;;;;;4972739;28;20430;-70
2023/07/31 10:45:36;;;;;;;2.90;2.10;;;;;;;;;;4971673;28;20410;-70
2023/07/31 10:48:13;;;;;;;3.63;1.50;;;;;;;;;;4972697;28;20823;-70
2023/07/31 10:50:47;;;;;;;4.47;1.73;;;;;;;;;;4973091;28;20414;-71
2023/07/31 10:53:23;;;;;;;1.60;1.50;;;;;;;;;;4972439;28;20474;-71
2023/07/31 10:55:51;;;;;;;2.67;2.27;;;;;;;;;;4973032;28;20444;-70
2023/07/31 10:58:18;;;;;;;5.30;1.73;;;;;;;;;;4972385;28;20837;-70
2023/07/31 11:00:45;;;;;;;1.63;1.53;;;;;;;;;;4972560;28;20995;-70
2023/07/31 11:03:12;;;;;;;7.30;2.10;;;;;;;;;;4972722;28;20430;-71
2023/07/31 11:05:45;;;;;;;1.80;1.43;;;;;;;;;;4972428;28;20445;-70
2023/07/31 11:08:16;;;;;;;1.67;1.30;;;;;;;;;;4972297;28;20937;-71
2023/07/31 11:10:43;;;;;;;4.43;2.00;;;;;;;;;;4972581;28;20511;-70
2023/07/31 11:13:10;;;;;;;2.73;1.40;;;;;;;;;;4972537;28;20426;-70
2023/07/31 11:15:36;;;;;;;2.10;1.73;;;;;;;;;;4972657;28;20447;-71
2023/07/31 11:18:07;;;;;;;3.23;1.40;;;;;;;;;;4972298;28;20464;-70
2023/07/31 11:20:34;;;;;;;2.13;1.70;;;;;;;;;;4972409;28;20516;-71
2023/07/31 11:23:02;;;;;;;2.50;1.67;;;;;;;;;;4972568;28;20426;-71
2023/07/31 11:25:29;;;;;;;3.60;1.30;;;;;;;;;;4972443;28;20469;-71
2023/07/31 11:27:56;;;;;;;2.10;2.00;;;;;;;;;;4972361;28;21016;-71
2023/07/31 11:30:22;;;;;;;3.73;1.60;;;;;;;;;;4972125;28;20418;-71
2023/07/31 11:32:50;;;;;;;1.60;1.50;;;;;;;;;;4972428;28;20422;-71
2023/07/31 11:35:16;;;;;;;1.43;1.33;;;;;;;;;;4972034;28;20529;-71
2023/07/31 11:37:43;;;;;;;2.97;1.43;;;;;;;;;;4972338;28;20506;-71
2023/07/31 11:40:09;;;;;;;3.20;1.83;;;;;;;;;;4972214;28;20968;-70
2023/07/31 11:42:36;;;;;;;3.00;1.50;;;;;;;;;;4972275;28;20418;-70
2023/07/31 11:45:03;;;;;;;1.33;1.33;;;;;;;;;;4972139;28;20422;-70
2023/07/31 11:47:30;;;;;;;1.60;1.50;;;;;;;;;;4972314;28;20425;-70
2023/07/31 11:49:56;;;;;;;2.40;1.60;;;;;;;;;;4971825;28;20904;-71
2023/07/31 11:52:23;;;;;;;1.90;1.90;;;;;;;;;;4972122;28;20450;-70
2023/07/31 11:54:49;;;;;;;11.63;3.00;;;;;;;;;;4971828;28;20968;-70
2023/07/31 11:57:15;;;;;;;2.77;2.00;;;;;;;;;;4971830;28;20418;-71
2023/07/31 11:59:42;;;;;;;2.00;1.70;;;;;;;;;;4972533;28;20953;-70
2023/07/31 12:02:09;;;;;;;2.73;1.67;;;;;;;;;;4972290;28;20418;-70
2023/07/31 12:04:36;;;;;;;4.77;1.97;;;;;;;;;;4971739;28;20426;-70
2023/07/31 12:07:02;;;;;;;2.50;2.23;;;;;;;;;;4972323;28;20764;-71
2023/07/31 12:09:28;;;;;;;2.23;2.13;;;;;;;;;;4971880;28;20422;-70
2023/07/31 12:11:54;;;;;;;2.07;1.87;;;;;;;;;;4971656;28;20418;-71
2023/07/31 12:14:22;;;;;;;2.30;2.20;;;;;;;;;;4971637;28;20921;-70
2023/07/31 12:16:53;;;;;;;2.80;1.63;;;;;;;;;;4971712;28;20426;-71
2023/07/31 12:19:19;;;;;;;1.73;1.63;;;;;;;;;;4971484;28;20549;-70
2023/07/31 12:21:45;;;;;;;2.10;1.80;;;;;;;;;;4971613;28;20434;-71
2023/07/31 12:24:12;;;;;;;3.23;2.07;;;;;;;;;;4971430;28;20418;-71
2023/07/31 12:26:37;;;;;;;5.70;1.60;;;;;;;;;;4970199;28;20453;-71
2023/07/31 12:29:07;;;;;;;1.40;1.30;;;;;;;;;;4971424;28;20882;-71
2023/07/31 12:31:34;;;;;;;1.80;1.70;;;;;;;;;;4971617;28;20422;-71
2023/07/31 12:34:02;;;;;;;2.97;2.30;;;;;;;;;;4971609;28;20505;-70
2023/07/31 12:36:30;;;;;;;3.90;2.00;;;;;;;;;;4971534;28;20735;-70
2023/07/31 12:38:58;;;;;;;1.70;1.60;;;;;;;;;;4971704;28;20448;-70
2023/07/31 12:41:24;;;;;;;2.87;1.87;;;;;;;;;;4971237;28;20801;-70
2023/07/31 12:43:50;;;;;;;3.17;2.17;;;;;;;;;;4971562;28;20425;-70
2023/07/31 12:46:17;;;;;;;1.73;1.63;;;;;;;;;;4971316;28;20430;-70
2023/07/31 12:48:43;;;;;;;4.53;2.93;;;;;;;;;;4969695;28;20415;-70
2023/07/31 12:51:09;;;;;;;2.00;1.87;;;;;;;;;;4973800;28;20426;-70
2023/07/31 12:53:35;;;;;;;8.23;1.90;;;;;;;;;;4974565;28;20478;-70
2023/07/31 12:56:01;;;;;;;3.03;1.83;;;;;;;;;;4974871;28;20512;-70
2023/07/31 12:58:27;;;;;;;3.57;2.17;;;;;;;;;;4975044;28;20457;-70
2023/07/31 13:00:53;;;;;;;2.33;2.10;;;;;;;;;;4974659;28;20501;-70
2023/07/31 13:03:19;;;;;;;4.60;2.47;;;;;;;;;;4974706;28;20423;-69
2023/07/31 13:05:45;;;;;;;4.33;2.07;;;;;;;;;;4974480;28;20421;-69
2023/07/31 13:08:11;;;;;;;10.23;2.13;;;;;;;;;;4974343;28;20516;-70
2023/07/31 13:10:37;;;;;;;4.23;2.03;;;;;;;;;;4974632;28;20422;-71
2023/07/31 13:13:03;;;;;;;3.23;1.90;;;;;;;;;;4974383;28;20811;-70
2023/07/31 13:15:30;;;;;;;2.40;2.20;;;;;;;;;;4974277;28;20421;-71
2023/07/31 13:17:56;;;;;;;1.63;1.53;;;;;;;;;;4974266;28;20788;-71
2023/07/31 13:23:25;;;;;;;2.43;2.23;;;;;;;;;;4974312;28;20402;-71
2023/07/31 13:25:51;;;;;;;3.33;1.73;;;;;;;;;;4974152;28;20417;-71
2023/07/31 13:28:17;;;;;;;2.30;2.00;;;;;;;;;;4974418;28;20426;-71
2023/07/31 13:30:43;;;;;;;2.47;1.90;;;;;;;;;;4974072;28;20509;-71
2023/07/31 13:33:09;;;;;;;1.63;1.53;;;;;;;;;;4974140;28;20936;-72
2023/07/31 13:35:35;;;;;;;1.73;1.63;;;;;;;;;;4974302;28;20411;-71
2023/07/31 13:38:01;;;;;;;3.30;1.70;;;;;;;;;;4973945;28;20422;-71
2023/07/31 13:40:27;;;;;;;2.00;1.73;;;;;;;;;;4973892;28;20520;-71
2023/07/31 13:42:54;;;;;;;2.30;1.77;;;;;;;;;;4974243;28;20468;-71
2023/07/31 13:45:20;;;;;;;2.10;1.90;;;;;;;;;;4974184;28;20456;-71
2023/07/31 13:47:46;;;;;;;6.13;2.30;;;;;;;;;;4974098;28;20410;-71
2023/07/31 13:50:12;;;;;;;2.20;1.93;;;;;;;;;;4973829;28;20441;-71
2023/07/31 13:52:38;;;;;;;3.57;2.47;;;;;;;;;;4974032;28;20980;-71
2023/07/31 13:55:04;;;;;;;3.00;2.10;;;;;;;;;;4973497;28;20503;-71
2023/07/31 13:57:30;;;;;;;2.20;1.93;;;;;;;;;;4972525;28;20422;-71
2023/07/31 13:59:56;;;;;;;1.70;1.60;;;;;;;;;;4973617;28;20564;-71
2023/07/31 14:02:22;;;;;;;2.30;2.20;;;;;;;;;;4972789;28;20414;-71
2023/07/31 14:04:48;;;;;;;7.50;1.90;;;;;;;;;;4973601;28;20430;-71
2023/07/31 14:07:14;;;;;;;2.10;2.10;;;;;;;;;;4973804;28;20423;-71
2023/07/31 14:09:40;;;;;;;1.57;1.47;;;;;;;;;;4973480;28;20426;-72
2023/07/31 14:12:06;;;;;;;2.73;2.63;;;;;;;;;;4974033;28;20429;-71
2023/07/31 14:14:33;;;;;;;2.40;2.07;;;;;;;;;;4973655;28;20433;-71
2023/07/31 14:16:59;;;;;;;2.50;1.87;;;;;;;;;;4973658;28;20418;-71
2023/07/31 14:19:25;;;;;;;1.80;1.57;;;;;;;;;;4973270;28;20458;-71
2023/07/31 14:21:51;;;;;;;2.40;2.20;;;;;;;;;;4973615;28;20492;-72
2023/07/31 14:24:17;;;;;;;1.93;1.70;;;;;;;;;;4973605;28;20418;-71
2023/07/31 14:26:43;;;;;;;2.20;1.50;;;;;;;;;;4973274;28;20878;-71
2023/07/31 14:29:09;;;;;;;1.90;1.80;;;;;;;;;;4973144;28;20418;-71
2023/07/31 14:31:36;;;;;;;2.03;1.83;;;;;;;;;;4973634;28;20456;-71
2023/07/31 14:34:02;;;;;;;5.37;1.97;;;;;;;;;;4973197;28;20454;-71
2023/07/31 14:36:28;;;;;;;4.47;1.80;;;;;;;;;;4973387;28;20457;-71
2023/07/31 14:38:54;;;;;;;1.83;1.73;;;;;;;;;;4973081;28;20913;-71
2023/07/31 14:41:20;;;;;;;2.87;2.00;;;;;;;;;;4973269;28;20480;-71
2023/07/31 14:43:46;;;;;;;1.53;1.53;;;;;;;;;;4972137;28;20891;-71
2023/07/31 14:46:12;;;;;;;2.97;2.27;;;;;;;;;;4973745;28;20441;-71
2023/07/31 14:48:38;;;;;;;2.30;1.50;;;;;;;;;;4972899;28;20464;-71
2023/07/31 14:51:04;;;;;;;3.00;1.83;;;;;;;;;;4972860;28;20895;-71
2023/07/31 14:53:30;;;;;;;3.60;1.83;;;;;;;;;;4972881;28;20553;-72
2023/07/31 14:55:56;;;;;;;2.93;1.80;;;;;;;;;;4971605;28;20434;-71